aviador You're here:

KFDW Decoded Metar

FAIRFIELD COUNTY AIRPORT in SC, USA
Report Time2017-04-25 06:35:00
UTC Time2017-04-25 06:40:26
Flight Rules ifr IFR
Wind340° at 06 kt
W.Decomp.*RWY 04: 3.6 kt HW 4.8 kt LCW
W.Rank340° ranks 27
Current wind is above 340° avg. (5.5)
Visibility9999 m
Phenomena:N/A
Clouds:Overcast 005 Hf
Ceiling500 ft
Temp12°C (ISA -2)
Dew Point12°C (100% RH)
AAT10.5°C
QNH1004 hPa
Density Alt853 ft
Elevation577 ft
Report Wrong Elevation
Raw Report
METAR KFDW 250635Z AUTO 34006KT 10SM OVC005 12/12 A2965 RMK AO1=

Extra information for KFDW:More info

Metar Taf Metar & Taf Last 4 Metars F.Rules Stats Wind Profile Meteogram Temp Stats Airport Information Weather charts Add Link Nearby VenuesMetar ALERT Operation Metar Decoded Social comments

AIRNAV info for KFDW